Time;durP1;ratioP1;P1;durP2;ratioP2;P2;SDS_P1;SDS_P2;PMS_P1;PMS_P2;Temp;Humidity;BMP_temperature;BMP_pressure;BME280_temperature;BME280_humidity;BME280_pressure;Samples;Min_cycle;Max_cycle;Signal;HPM_P1;HPM_P2
2022/07/23 00:00:49;;;;;;;;;;;22.10;72.50;;;;;;5012386;28;931;-67
2022/07/23 00:03:15;;;;;;;;;;;22.10;72.60;;;;;;4994847;28;1895;-67
2022/07/23 00:05:40;;;;;;;;;;;22.10;72.60;;;;;;5012591;28;1120;-66
2022/07/23 00:08:06;;;;;;;;;;;22.10;72.50;;;;;;5012334;28;825;-67
2022/07/23 00:10:31;;;;;;;;;;;22.10;72.60;;;;;;5012325;28;808;-67
2022/07/23 00:12:57;;;;;;;;;;;22.00;72.50;;;;;;4994819;28;1101;-67
2022/07/23 00:15:22;;;;;;;;;;;22.10;72.50;;;;;;4996537;28;1268;-67
2022/07/23 00:17:47;;;;;;;;;;;22.10;72.60;;;;;;5016036;28;939;-68
2022/07/23 00:20:13;;;;;;;;;;;22.10;72.60;;;;;;5015899;28;1152;-67
2022/07/23 00:22:47;;;;;;;;;;;22.00;72.50;;;;;;5015658;28;1902;-67
2022/07/23 00:25:13;;;;;;;;;;;22.10;72.60;;;;;;5015683;28;1220;-67
2022/07/23 00:27:38;;;;;;;;;;;22.00;72.50;;;;;;5016169;28;828;-66
2022/07/23 00:30:04;;;;;;;;;;;22.10;72.60;;;;;;5015796;28;768;-65
2022/07/23 00:32:30;;;;;;;;;;;22.10;72.60;;;;;;5015619;28;1069;-65
2022/07/23 00:34:55;;;;;;;;;;;22.10;72.60;;;;;;5015640;28;1325;-66
2022/07/23 00:37:20;;;;;;;;;;;22.10;72.60;;;;;;5015561;28;800;-65
2022/07/23 00:39:46;;;;;;;;;;;22.10;72.60;;;;;;5015972;28;809;-65
2022/07/23 00:42:11;;;;;;;;;;;22.10;72.60;;;;;;5015783;28;1959;-66
2022/07/23 00:44:37;;;;;;;;;;;22.10;72.60;;;;;;5015478;28;1294;-65
2022/07/23 00:47:02;;;;;;;;;;;22.10;72.60;;;;;;5016313;28;890;-65
2022/07/23 00:49:28;;;;;;;;;;;22.10;72.60;;;;;;5014815;28;1066;-66
2022/07/23 00:51:54;;;;;;;;;;;22.00;72.50;;;;;;5013045;28;2287;-66
2022/07/23 00:54:19;;;;;;;;;;;22.10;72.60;;;;;;5015158;28;1277;-65
2022/07/23 00:56:45;;;;;;;;;;;22.10;72.60;;;;;;5011769;28;1181;-65
2022/07/23 00:59:10;;;;;;;;;;;22.10;72.60;;;;;;4998023;28;1075;-65
2022/07/23 01:01:36;;;;;;;;;;;22.10;72.60;;;;;;5015560;28;1064;-64
2022/07/23 01:04:01;;;;;;;;;;;22.10;72.60;;;;;;4997693;28;1958;-65
2022/07/23 01:06:27;;;;;;;;;;;22.10;72.60;;;;;;5015286;28;1196;-63
2022/07/23 01:08:53;;;;;;;;;;;22.10;72.60;;;;;;5015440;28;835;-65
2022/07/23 01:11:19;;;;;;;;;;;22.00;72.50;;;;;;5015445;28;816;-67
2022/07/23 01:13:44;;;;;;;;;;;22.10;72.60;;;;;;5015025;28;1279;-64
2022/07/23 01:16:09;;;;;;;;;;;22.10;72.60;;;;;;5015214;28;850;-64
2022/07/23 01:18:35;;;;;;;;;;;22.10;72.60;;;;;;5015241;28;812;-64
2022/07/23 01:21:01;;;;;;;;;;;22.10;72.60;;;;;;5007486;28;1461;-65
2022/07/23 01:23:26;;;;;;;;;;;22.00;72.50;;;;;;4986371;28;1903;-68
2022/07/23 01:25:51;;;;;;;;;;;22.10;72.60;;;;;;5004969;28;1181;-64
2022/07/23 01:28:17;;;;;;;;;;;22.10;72.60;;;;;;4986347;28;1332;-65
2022/07/23 01:30:42;;;;;;;;;;;22.00;72.50;;;;;;5005461;28;1180;-65
2022/07/23 01:33:08;;;;;;;;;;;22.00;72.60;;;;;;5004805;28;1292;-66
2022/07/23 01:35:33;;;;;;;;;;;22.00;72.60;;;;;;5027870;23;1963;-75
2022/07/23 01:37:59;;;;;;;;;;;22.10;72.60;;;;;;5013130;28;1359;-72
2022/07/23 01:40:24;;;;;;;;;;;22.10;72.60;;;;;;5012093;28;1153;-73
2022/07/23 01:42:50;;;;;;;;;;;22.00;72.50;;;;;;4987187;28;2001;-74
2022/07/23 01:45:15;;;;;;;;;;;22.10;72.60;;;;;;4987066;28;1386;-72
2022/07/23 01:47:41;;;;;;;;;;;22.10;72.60;;;;;;5004227;28;1172;-73
2022/07/23 01:50:06;;;;;;;;;;;22.00;72.60;;;;;;5002961;28;1185;-75
2022/07/23 01:52:32;;;;;;;;;;;22.10;72.60;;;;;;4985082;28;1181;-71
2022/07/23 01:54:57;;;;;;;;;;;22.00;72.50;;;;;;4986142;28;1394;-71
2022/07/23 01:57:22;;;;;;;;;;;22.10;72.60;;;;;;4977008;28;1686;-72
2022/07/23 01:59:48;;;;;;;;;;;22.10;72.60;;;;;;4985990;28;1177;-73
2022/07/23 02:02:13;;;;;;;;;;;22.00;72.60;;;;;;5005004;28;1898;-72
2022/07/23 02:04:39;;;;;;;;;;;22.10;72.60;;;;;;4997384;28;1340;-72
2022/07/23 02:07:04;;;;;;;;;;;22.10;72.70;;;;;;5011293;28;1259;-72
2022/07/23 02:09:30;;;;;;;;;;;22.10;72.70;;;;;;5014406;28;938;-73
2022/07/23 02:11:55;;;;;;;;;;;22.10;72.70;;;;;;5014690;28;848;-72
2022/07/23 02:14:21;;;;;;;;;;;22.10;72.70;;;;;;5014007;28;1238;-73
2022/07/23 02:16:46;;;;;;;;;;;22.10;72.60;;;;;;5014199;28;871;-71
2022/07/23 02:19:12;;;;;;;;;;;22.00;72.60;;;;;;4996676;28;1132;-72
2022/07/23 02:21:37;;;;;;;;;;;22.10;72.70;;;;;;4996365;28;860;-72
2022/07/23 02:24:03;;;;;;;;;;;22.10;72.70;;;;;;5013748;28;2025;-71
2022/07/23 02:26:29;;;;;;;;;;;22.10;72.70;;;;;;4980370;28;1264;-71
2022/07/23 02:28:54;;;;;;;;;;;22.10;72.70;;;;;;5013977;28;919;-71
2022/07/23 02:31:20;;;;;;;;;;;22.00;72.60;;;;;;4996458;28;1295;-72
2022/07/23 02:33:45;;;;;;;;;;;22.10;72.70;;;;;;4996273;28;1199;-73
2022/07/23 02:36:11;;;;;;;;;;;22.00;72.60;;;;;;4995992;28;1364;-72
2022/07/23 02:38:36;;;;;;;;;;;22.10;72.70;;;;;;5013369;28;1017;-72
2022/07/23 02:41:02;;;;;;;;;;;22.10;72.70;;;;;;5013939;28;827;-73
2022/07/23 02:43:27;;;;;;;;;;;22.00;72.60;;;;;;4996215;28;1910;-72
2022/07/23 02:45:53;;;;;;;;;;;22.10;72.70;;;;;;4996127;28;1509;-73
2022/07/23 02:48:18;;;;;;;;;;;22.10;72.70;;;;;;4996321;28;867;-72
2022/07/23 02:50:43;;;;;;;;;;;22.10;72.70;;;;;;4995840;28;789;-72
2022/07/23 02:53:09;;;;;;;;;;;22.10;72.70;;;;;;5013536;28;788;-71
2022/07/23 02:55:34;;;;;;;;;;;22.10;72.70;;;;;;5013320;28;1189;-71
2022/07/23 02:58:00;;;;;;;;;;;22.00;72.70;;;;;;4996053;28;1018;-72
2022/07/23 03:00:25;;;;;;;;;;;22.10;72.70;;;;;;4979650;28;1293;-71
2022/07/23 03:02:51;;;;;;;;;;;22.10;72.70;;;;;;4995835;28;1974;-73
2022/07/23 03:05:16;;;;;;;;;;;22.10;72.70;;;;;;4995353;28;1277;-74
2022/07/23 03:07:42;;;;;;;;;;;22.10;72.70;;;;;;4995844;28;848;-73
2022/07/23 03:10:07;;;;;;;;;;;22.10;72.70;;;;;;5013361;28;804;-73
2022/07/23 03:12:33;;;;;;;;;;;22.00;72.60;;;;;;5013288;28;1135;-74
2022/07/23 03:14:58;;;;;;;;;;;22.00;72.60;;;;;;5012953;28;1212;-74
2022/07/23 03:17:23;;;;;;;;;;;22.10;72.70;;;;;;5013655;28;878;-74
2022/07/23 03:19:49;;;;;;;;;;;22.00;72.70;;;;;;4995332;28;1188;-75
2022/07/23 03:22:14;;;;;;;;;;;22.10;72.70;;;;;;5013137;28;1898;-74
2022/07/23 03:24:55;;;;;;;;;;;22.00;72.70;;;;;;5013017;28;1200;-74
2022/07/23 03:27:24;;;;;;;;;;;22.00;72.70;;;;;;4995663;28;1288;-71
2022/07/23 03:29:50;;;;;;;;;;;22.00;72.70;;;;;;5013558;28;803;-72
2022/07/23 03:32:16;;;;;;;;;;;22.00;72.70;;;;;;4979241;28;1235;-72
2022/07/23 03:34:41;;;;;;;;;;;22.10;73.50;;;;;;4995063;28;1294;-73
2022/07/23 03:37:06;;;;;;;;;;;22.00;72.70;;;;;;4995594;28;1009;-72
2022/07/23 03:39:32;;;;;;;;;;;22.00;72.70;;;;;;5013076;28;804;-73
2022/07/23 03:41:57;;;;;;;;;;;22.10;72.80;;;;;;4995485;28;1899;-73
2022/07/23 03:44:23;;;;;;;;;;;22.10;72.80;;;;;;4995348;28;1200;-72
2022/07/23 03:46:48;;;;;;;;;;;22.10;73.50;;;;;;4995398;28;1140;-74
2022/07/23 03:49:14;;;;;;;;;;;22.00;72.70;;;;;;4996260;28;861;-73
2022/07/23 03:51:39;;;;;;;;;;;22.00;72.70;;;;;;5017159;28;887;-74
2022/07/23 03:54:04;;;;;;;;;;;22.00;72.70;;;;;;5015600;28;2083;-73
2022/07/23 03:56:30;;;;;;;;;;;22.00;72.70;;;;;;5016716;28;1314;-73
2022/07/23 03:58:55;;;;;;;;;;;22.10;72.80;;;;;;4982767;28;1242;-72
2022/07/23 04:01:21;;;;;;;;;;;22.10;72.80;;;;;;4999238;28;864;-76
2022/07/23 04:03:46;;;;;;;;;;;22.00;72.70;;;;;;4998824;28;1898;-76
2022/07/23 04:06:12;;;;;;;;;;;22.00;72.70;;;;;;4982510;28;1304;-72
2022/07/23 04:08:37;;;;;;;;;;;22.00;72.70;;;;;;4999064;28;1259;-73
2022/07/23 04:11:03;;;;;;;;;;;22.00;72.70;;;;;;5016669;28;891;-75
2022/07/23 04:13:28;;;;;;;;;;;22.00;72.70;;;;;;4999362;28;1199;-75
2022/07/23 04:15:54;;;;;;;;;;;22.10;72.80;;;;;;4998976;28;1259;-75
2022/07/23 04:18:21;;;;;;;;;;;22.00;72.70;;;;;;4998829;28;1334;-75
2022/07/23 04:20:47;;;;;;;;;;;22.00;72.70;;;;;;5016516;28;1172;-75
2022/07/23 04:23:12;;;;;;;;;;;22.00;72.70;;;;;;4998874;28;1898;-75
2022/07/23 04:25:38;;;;;;;;;;;22.00;72.70;;;;;;4998467;28;1336;-75
2022/07/23 04:28:03;;;;;;;;;;;22.10;72.80;;;;;;4998878;28;1054;-74
2022/07/23 04:30:29;;;;;;;;;;;22.00;72.70;;;;;;4998730;28;1002;-74
2022/07/23 04:32:54;;;;;;;;;;;22.00;72.70;;;;;;4998615;28;868;-74
2022/07/23 04:35:20;;;;;;;;;;;22.00;72.70;;;;;;5015987;28;1274;-72
2022/07/23 04:37:45;;;;;;;;;;;22.10;72.80;;;;;;4982216;28;1571;-72
2022/07/23 04:40:11;;;;;;;;;;;22.10;72.80;;;;;;4998482;28;1002;-72
2022/07/23 04:42:36;;;;;;;;;;;22.00;72.80;;;;;;4998290;28;1977;-72
2022/07/23 04:45:03;;;;;;;;;;;22.00;72.70;;;;;;4981533;28;1237;-72
2022/07/23 04:47:29;;;;;;;;;;;22.00;72.70;;;;;;5014892;28;823;-72
2022/07/23 04:49:54;;;;;;;;;;;22.10;72.80;;;;;;5015504;28;766;-71
2022/07/23 04:52:20;;;;;;;;;;;22.00;72.70;;;;;;4997966;28;1380;-71
2022/07/23 04:54:45;;;;;;;;;;;22.00;72.80;;;;;;5015355;28;1299;-71
2022/07/23 04:57:11;;;;;;;;;;;22.00;72.80;;;;;;4998293;28;785;-71
2022/07/23 04:59:36;;;;;;;;;;;22.00;72.70;;;;;;5015533;28;890;-71
2022/07/23 05:02:01;;;;;;;;;;;22.00;72.70;;;;;;5015140;28;1940;-72
2022/07/23 05:04:27;;;;;;;;;;;22.00;72.70;;;;;;5015133;28;1194;-72
2022/07/23 05:06:52;;;;;;;;;;;22.10;72.80;;;;;;4997956;28;1426;-72
2022/07/23 05:09:18;;;;;;;;;;;22.10;72.80;;;;;;4991848;28;1844;-73
2022/07/23 05:11:43;;;;;;;;;;;22.00;72.80;;;;;;5008004;28;1292;-72
2022/07/23 05:14:12;;;;;;;;;;;22.00;72.80;;;;;;4977680;28;1285;-75
2022/07/23 05:16:37;;;;;;;;;;;22.00;72.80;;;;;;4995398;28;827;-73
2022/07/23 05:19:03;;;;;;;;;;;22.00;72.80;;;;;;4997677;28;1156;-76
2022/07/23 05:21:28;;;;;;;;;;;22.00;72.80;;;;;;5014960;28;904;-76
2022/07/23 05:23:54;;;;;;;;;;;22.00;72.80;;;;;;4997382;28;1914;-76
2022/07/23 05:26:19;;;;;;;;;;;22.00;72.80;;;;;;4997535;28;947;-74
2022/07/23 05:28:45;;;;;;;;;;;22.00;72.80;;;;;;5015199;28;895;-74
2022/07/23 05:31:10;;;;;;;;;;;22.00;72.80;;;;;;5014763;28;990;-74
2022/07/23 05:33:36;;;;;;;;;;;22.00;72.70;;;;;;4997395;28;840;-74
2022/07/23 05:36:02;;;;;;;;;;;22.00;72.70;;;;;;5014725;28;945;-74
2022/07/23 05:38:28;;;;;;;;;;;22.10;72.80;;;;;;4981085;28;1452;-73
2022/07/23 05:40:53;;;;;;;;;;;22.00;72.70;;;;;;4997225;28;1081;-73
2022/07/23 05:43:19;;;;;;;;;;;22.10;72.80;;;;;;5014825;28;1902;-72
2022/07/23 05:45:44;;;;;;;;;;;22.00;72.70;;;;;;5014161;28;1236;-71
2022/07/23 05:48:09;;;;;;;;;;;22.10;72.80;;;;;;5014567;28;839;-72
2022/07/23 05:50:35;;;;;;;;;;;22.10;72.80;;;;;;4997020;28;1157;-68
2022/07/23 05:53:00;;;;;;;;;;;22.00;72.70;;;;;;5014590;28;859;-68
2022/07/23 05:55:28;;;;;;;;;;;22.00;72.70;;;;;;4996794;28;1322;-69
2022/07/23 05:57:55;;;;;;;;;;;22.00;73.00;;;;;;4997309;28;855;-71
2022/07/23 06:00:20;;;;;;;;;;;22.10;72.80;;;;;;5014781;28;782;-67
2022/07/23 06:02:46;;;;;;;;;;;22.10;72.80;;;;;;5014431;28;1902;-69
2022/07/23 06:05:11;;;;;;;;;;;22.00;72.70;;;;;;4996762;28;1385;-70
2022/07/23 06:07:37;;;;;;;;;;;22.10;72.80;;;;;;4997161;28;832;-69
2022/07/23 06:10:03;;;;;;;;;;;22.10;72.80;;;;;;4981050;28;1335;-73
2022/07/23 06:12:29;;;;;;;;;;;22.00;72.70;;;;;;4996208;28;1112;-72
2022/07/23 06:14:54;;;;;;;;;;;22.00;72.70;;;;;;4996575;28;1221;-70
2022/07/23 06:17:20;;;;;;;;;;;22.10;72.80;;;;;;4980339;28;1279;-68
2022/07/23 06:19:45;;;;;;;;;;;22.10;72.80;;;;;;4996666;28;1295;-70
2022/07/23 06:22:11;;;;;;;;;;;22.00;72.70;;;;;;4996797;28;1898;-68
2022/07/23 06:24:36;;;;;;;;;;;22.10;72.80;;;;;;5014219;28;1303;-71
2022/07/23 06:27:02;;;;;;;;;;;22.00;73.50;;;;;;5014137;28;1022;-73
2022/07/23 06:29:27;;;;;;;;;;;22.10;72.80;;;;;;5014108;28;879;-71
2022/07/23 06:31:53;;;;;;;;;;;22.10;72.80;;;;;;4996513;28;943;-69
2022/07/23 06:34:18;;;;;;;;;;;22.00;72.70;;;;;;5013427;28;1304;-70
2022/07/23 06:36:43;;;;;;;;;;;22.00;72.70;;;;;;5013959;28;817;-70
2022/07/23 06:39:09;;;;;;;;;;;22.00;72.70;;;;;;5013900;28;780;-70
2022/07/23 06:41:34;;;;;;;;;;;22.00;72.80;;;;;;5013786;28;930;-70
2022/07/23 06:44:00;;;;;;;;;;;22.00;72.80;;;;;;5013276;28;1911;-71
2022/07/23 06:46:25;;;;;;;;;;;22.10;72.80;;;;;;5013547;28;1184;-70
2022/07/23 06:48:51;;;;;;;;;;;22.00;72.80;;;;;;4996043;28;781;-68
2022/07/23 06:51:16;;;;;;;;;;;22.00;72.80;;;;;;5013646;28;1486;-68
2022/07/23 06:53:42;;;;;;;;;;;22.00;72.80;;;;;;4995801;28;1291;-69
2022/07/23 06:56:07;;;;;;;;;;;22.00;72.80;;;;;;5013460;28;796;-73
2022/07/23 06:58:32;;;;;;;;;;;22.00;72.80;;;;;;5013607;28;768;-72
2022/07/23 07:00:58;;;;;;;;;;;22.00;72.80;;;;;;5013444;28;844;-71
2022/07/23 07:03:23;;;;;;;;;;;22.00;72.80;;;;;;5013290;28;1944;-71
2022/07/23 07:05:49;;;;;;;;;;;22.00;72.80;;;;;;5013026;28;1273;-71
2022/07/23 07:08:15;;;;;;;;;;;22.10;72.90;;;;;;4995940;28;883;-71
2022/07/23 07:10:40;;;;;;;;;;;22.00;72.80;;;;;;5013596;28;817;-71
2022/07/23 07:13:06;;;;;;;;;;;22.00;72.80;;;;;;5013176;28;1170;-72
2022/07/23 07:15:31;;;;;;;;;;;22.10;72.80;;;;;;4995382;28;1298;-71
2022/07/23 07:17:57;;;;;;;;;;;22.00;72.80;;;;;;4995912;28;1168;-71
2022/07/23 07:20:23;;;;;;;;;;;22.00;72.80;;;;;;5013172;28;1136;-71
2022/07/23 07:22:49;;;;;;;;;;;22.00;72.80;;;;;;5011489;28;1906;-70
2022/07/23 07:25:14;;;;;;;;;;;22.00;72.80;;;;;;5011089;28;1249;-70
2022/07/23 07:27:39;;;;;;;;;;;22.00;72.80;;;;;;5013149;28;804;-70
2022/07/23 07:30:05;;;;;;;;;;;22.00;72.80;;;;;;5013020;28;922;-72
2022/07/23 07:32:32;;;;;;;;;;;22.00;72.80;;;;;;4995879;28;1002;-71
2022/07/23 07:34:57;;;;;;;;;;;22.00;72.80;;;;;;5018468;23;3883;-68
2022/07/23 07:37:23;;;;;;;;;;;22.00;72.80;;;;;;4993108;28;1029;-68
2022/07/23 07:39:48;;;;;;;;;;;22.00;72.80;;;;;;4993528;28;793;-68
2022/07/23 07:42:14;;;;;;;;;;;22.00;72.80;;;;;;4993292;28;1907;-67
2022/07/23 07:44:39;;;;;;;;;;;22.00;72.80;;;;;;4993236;28;1299;-67
2022/07/23 07:47:05;;;;;;;;;;;22.00;72.80;;;;;;4992987;28;949;-67
2022/07/23 07:49:30;;;;;;;;;;;22.00;72.80;;;;;;4993343;28;848;-68
2022/07/23 07:51:55;;;;;;;;;;;22.00;72.80;;;;;;4993599;28;876;-67
2022/07/23 07:54:21;;;;;;;;;;;22.10;72.90;;;;;;4993088;28;1292;-67
2022/07/23 07:56:47;;;;;;;;;;;22.00;72.80;;;;;;4993253;28;844;-67
2022/07/23 07:59:14;;;;;;;;;;;22.00;73.60;;;;;;4993166;28;875;-68
2022/07/23 08:01:40;;;;;;;;;;;22.00;72.80;;;;;;4993299;28;820;-68
2022/07/23 08:04:05;;;;;;;;;;;22.00;72.80;;;;;;4993155;28;1903;-67
2022/07/23 08:06:31;;;;;;;;;;;22.00;72.80;;;;;;4975865;28;1227;-67
2022/07/23 08:08:56;;;;;;;;;;;22.00;72.80;;;;;;4993350;28;1053;-68
2022/07/23 08:11:21;;;;;;;;;;;22.00;72.80;;;;;;4993081;28;846;-67
2022/07/23 08:13:47;;;;;;;;;;;22.00;72.80;;;;;;4992945;28;1156;-68
2022/07/23 08:16:13;;;;;;;;;;;22.00;72.80;;;;;;4992958;28;1179;-68
2022/07/23 08:18:38;;;;;;;;;;;22.00;72.80;;;;;;4993207;28;788;-68
2022/07/23 08:21:05;;;;;;;;;;;22.00;72.80;;;;;;4993361;28;1407;-67
2022/07/23 08:23:30;;;;;;;;;;;22.00;72.90;;;;;;4992951;28;1914;-68
2022/07/23 08:25:56;;;;;;;;;;;22.00;72.80;;;;;;4992791;28;1244;-67
2022/07/23 08:28:22;;;;;;;;;;;22.00;72.80;;;;;;4993179;28;855;-68
2022/07/23 08:30:47;;;;;;;;;;;22.00;72.80;;;;;;4989790;28;2189;-67
2022/07/23 08:33:14;;;;;;;;;;;22.00;72.80;;;;;;4988909;28;1179;-67
2022/07/23 08:35:46;;;;;;;;;;;22.00;72.80;;;;;;4993277;28;1285;-67
2022/07/23 08:38:12;;;;;;;;;;;22.00;72.90;;;;;;4987023;28;1104;-67
2022/07/23 08:40:38;;;;;;;;;;;22.00;72.80;;;;;;4994964;28;840;-67
2022/07/23 08:43:10;;;;;;;;;;;22.00;72.80;;;;;;4992343;28;1902;-67
2022/07/23 08:45:36;;;;;;;;;;;22.00;72.80;;;;;;4995831;28;1352;-68
2022/07/23 08:48:02;;;;;;;;;;;22.00;72.80;;;;;;4995303;28;769;-67
2022/07/23 08:50:27;;;;;;;;;;;22.00;72.80;;;;;;4994932;28;1069;-68
2022/07/23 08:52:53;;;;;;;;;;;22.00;72.90;;;;;;4996221;28;847;-66
2022/07/23 08:55:21;;;;;;;;;;;22.00;72.90;;;;;;4995659;28;1191;-67
2022/07/23 08:57:47;;;;;;;;;;;22.00;72.80;;;;;;4996119;28;859;-67
2022/07/23 09:00:13;;;;;;;;;;;22.00;72.80;;;;;;4996154;28;1009;-67
2022/07/23 09:02:39;;;;;;;;;;;22.00;72.90;;;;;;4996241;28;1948;-67
2022/07/23 09:05:06;;;;;;;;;;;22.00;72.90;;;;;;4995648;28;1189;-68
2022/07/23 09:07:31;;;;;;;;;;;22.00;72.90;;;;;;4996061;28;919;-67
2022/07/23 09:10:07;;;;;;;;;;;22.00;72.90;;;;;;4995618;28;828;-67
2022/07/23 09:12:32;;;;;;;;;;;22.00;72.90;;;;;;4996033;28;1164;-67
2022/07/23 09:14:59;;;;;;;;;;;22.00;72.90;;;;;;4995422;28;1303;-67
2022/07/23 09:17:24;;;;;;;;;;;22.00;72.90;;;;;;4978697;28;799;-67
2022/07/23 09:19:50;;;;;;;;;;;22.00;72.80;;;;;;4986712;28;2217;-67
2022/07/23 09:22:22;;;;;;;;;;;22.00;73.60;;;;;;4971541;28;1941;-67
2022/07/23 09:25:07;;;;;;;;;;;22.00;72.90;;;;;;4981748;28;2257;-67
2022/07/23 09:27:46;;;;;;;;;;;22.00;72.90;;;;;;4965764;28;1917;-67
2022/07/23 09:30:11;;;;;;;;;;;22.00;72.90;;;;;;4974045;28;1843;-67
2022/07/23 09:32:37;;;;;;;;;;;22.00;72.80;;;;;;4977300;28;1826;-67
2022/07/23 09:35:03;;;;;;;;;;;22.00;72.90;;;;;;4991930;28;1394;-67
2022/07/23 09:37:28;;;;;;;;;;;22.00;72.90;;;;;;4988513;28;1923;-67
2022/07/23 09:39:54;;;;;;;;;;;22.00;72.90;;;;;;4979312;28;1309;-67
2022/07/23 09:42:20;;;;;;;;;;;22.00;72.90;;;;;;4985812;28;1957;-67
2022/07/23 09:44:46;;;;;;;;;;;22.00;72.90;;;;;;4994047;28;1386;-67
2022/07/23 09:47:12;;;;;;;;;;;22.00;72.90;;;;;;4990276;28;2158;-67
2022/07/23 09:49:37;;;;;;;;;;;22.00;72.90;;;;;;4995074;28;1174;-67
2022/07/23 09:52:03;;;;;;;;;;;22.00;72.80;;;;;;4995017;28;1104;-67
2022/07/23 09:54:35;;;;;;;;;;;22.00;72.80;;;;;;4994919;28;1331;-68
2022/07/23 09:57:14;;;;;;;;;;;22.00;72.90;;;;;;4991786;28;2164;-66
2022/07/23 09:59:40;;;;;;;;;;;22.00;72.90;;;;;;4995070;28;1201;-67
2022/07/23 10:02:06;;;;;;;;;;;22.00;72.90;;;;;;4994677;28;1890;-67
2022/07/23 10:04:32;;;;;;;;;;;22.00;72.90;;;;;;4992493;28;1291;-66
2022/07/23 10:06:58;;;;;;;;;;;22.00;72.90;;;;;;4977234;28;1125;-68
2022/07/23 10:09:24;;;;;;;;;;;22.00;72.90;;;;;;4977349;28;1427;-67
2022/07/23 10:11:50;;;;;;;;;;;22.00;72.90;;;;;;4994653;28;769;-67
2022/07/23 10:14:15;;;;;;;;;;;22.00;72.90;;;;;;4976902;28;1213;-67
2022/07/23 10:16:41;;;;;;;;;;;22.00;72.90;;;;;;4994644;28;919;-67
2022/07/23 10:19:06;;;;;;;;;;;22.00;72.90;;;;;;4977280;28;1271;-67
2022/07/23 10:21:44;;;;;;;;;;;22.00;72.90;;;;;;4977466;28;848;-68
2022/07/23 10:24:17;;;;;;;;;;;22.00;72.90;;;;;;4994372;28;1903;-68
2022/07/23 10:27:05;;;;;;;;;;;22.00;72.90;;;;;;4977336;28;921;-67
2022/07/23 10:29:37;;;;;;;;;;;22.00;72.90;;;;;;4966657;28;1285;-67
2022/07/23 10:32:04;;;;;;;;;;;22.00;72.90;;;;;;4994534;28;931;-66
2022/07/23 10:34:33;;;;;;;;;;;22.00;72.90;;;;;;4976543;28;1294;-68
2022/07/23 10:37:11;;;;;;;;;;;22.00;72.90;;;;;;4994308;28;955;-68
2022/07/23 10:39:37;;;;;;;;;;;22.00;72.90;;;;;;4994380;28;899;-66
2022/07/23 10:42:10;;;;;;;;;;;22.00;72.90;;;;;;4994184;28;863;-67
2022/07/23 10:44:45;;;;;;;;;;;22.00;72.90;;;;;;4993897;28;1308;-67
2022/07/23 10:49:42;;;;;;;;;;;22.00;72.90;;;;;;4994143;28;713;-67
2022/07/23 10:52:15;;;;;;;;;;;22.00;72.90;;;;;;4993902;28;812;-67
2022/07/23 10:54:46;;;;;;;;;;;22.00;72.90;;;;;;4993746;28;1277;-66
2022/07/23 10:57:12;;;;;;;;;;;22.00;72.90;;;;;;4993899;28;834;-67
2022/07/23 10:59:56;;;;;;;;;;;22.00;72.90;;;;;;4976164;28;1078;-66
2022/07/23 11:02:25;;;;;;;;;;;22.00;72.90;;;;;;4993667;28;1957;-67
2022/07/23 11:04:51;;;;;;;;;;;22.00;72.90;;;;;;4993488;28;1185;-67
2022/07/23 11:07:17;;;;;;;;;;;22.00;72.90;;;;;;4993778;28;1210;-68
2022/07/23 11:09:42;;;;;;;;;;;22.00;72.90;;;;;;4976570;28;812;-67
2022/07/23 11:12:20;;;;;;;;;;;22.00;72.90;;;;;;4993747;28;1168;-66
2022/07/23 11:15:01;;;;;;;;;;;22.00;72.90;;;;;;4993371;28;1298;-68
2022/07/23 11:17:27;;;;;;;;;;;22.00;72.90;;;;;;4976424;28;820;-67
2022/07/23 11:20:07;;;;;;;;;;;22.00;72.90;;;;;;4993752;28;1184;-67
2022/07/23 11:22:39;;;;;;;;;;;22.00;72.90;;;;;;4993557;28;1899;-68
2022/07/23 11:25:04;;;;;;;;;;;22.00;72.90;;;;;;4993255;28;1204;-67
2022/07/23 11:27:37;;;;;;;;;;;22.00;72.90;;;;;;4973643;28;2377;-67
2022/07/23 11:30:02;;;;;;;;;;;22.00;72.90;;;;;;4990682;28;1118;-65
2022/07/23 11:32:29;;;;;;;;;;;22.00;72.90;;;;;;4993746;28;1120;-67
2022/07/23 11:34:54;;;;;;;;;;;22.00;72.90;;;;;;4991965;28;1146;-65
2022/07/23 11:37:26;;;;;;;;;;;22.00;72.90;;;;;;4992284;28;978;-67
2022/07/23 11:39:54;;;;;;;;;;;22.00;72.90;;;;;;4992117;28;1439;-67
2022/07/23 11:42:19;;;;;;;;;;;22.00;72.90;;;;;;4992398;28;1910;-67
2022/07/23 11:44:46;;;;;;;;;;;22.00;72.90;;;;;;4993225;28;1219;-67
2022/07/23 11:47:14;;;;;;;;;;;22.00;72.90;;;;;;4993391;28;853;-66
2022/07/23 11:49:51;;;;;;;;;;;22.00;72.90;;;;;;4993614;28;911;-66
2022/07/23 11:52:17;;;;;;;;;;;22.00;73.00;;;;;;4993197;28;830;-67
2022/07/23 11:54:56;;;;;;;;;;;22.00;72.90;;;;;;4975679;28;1206;-67
2022/07/23 11:57:25;;;;;;;;;;;22.00;72.90;;;;;;4993447;28;953;-67
2022/07/23 11:59:51;;;;;;;;;;;22.00;73.70;;;;;;4993452;28;910;-67
2022/07/23 12:02:16;;;;;;;;;;;22.00;72.90;;;;;;4992074;28;1899;-67
2022/07/23 12:04:43;;;;;;;;;;;22.00;72.90;;;;;;4992975;28;1205;-66
2022/07/23 12:07:27;;;;;;;;;;;22.00;72.90;;;;;;4993086;28;1207;-67
2022/07/23 12:09:52;;;;;;;;;;;22.00;72.90;;;;;;4993296;28;859;-67
2022/07/23 12:12:18;;;;;;;;;;;22.00;72.90;;;;;;4996925;28;1277;-66
2022/07/23 12:14:49;;;;;;;;;;;22.00;73.00;;;;;;4996795;28;1306;-67
2022/07/23 12:17:15;;;;;;;;;;;22.00;72.90;;;;;;4996727;28;804;-66
2022/07/23 12:19:40;;;;;;;;;;;22.00;73.00;;;;;;4996865;28;1124;-66
2022/07/23 12:22:05;;;;;;;;;;;22.00;72.90;;;;;;4979430;28;1014;-67
2022/07/23 12:24:31;;;;;;;;;;;22.00;72.90;;;;;;4978895;28;1907;-67
2022/07/23 12:27:12;;;;;;;;;;;22.00;72.90;;;;;;4979392;28;836;-65
2022/07/23 12:29:38;;;;;;;;;;;22.00;73.00;;;;;;4996770;28;926;-66
2022/07/23 12:32:16;;;;;;;;;;;22.00;72.90;;;;;;4996655;28;860;-66
2022/07/23 12:34:42;;;;;;;;;;;22.00;73.00;;;;;;4996193;28;1252;-67
2022/07/23 12:37:07;;;;;;;;;;;22.00;72.90;;;;;;4979156;28;911;-67
2022/07/23 12:39:32;;;;;;;;;;;22.00;73.00;;;;;;4996596;28;999;-67
2022/07/23 12:41:58;;;;;;;;;;;22.00;73.00;;;;;;4996462;28;1006;-67
2022/07/23 12:44:23;;;;;;;;;;;22.00;73.00;;;;;;4995940;28;1910;-67
2022/07/23 12:46:50;;;;;;;;;;;22.00;73.00;;;;;;4979204;28;1058;-67
2022/07/23 12:49:24;;;;;;;;;;;22.00;73.00;;;;;;4996331;28;965;-66
2022/07/23 12:51:50;;;;;;;;;;;22.00;73.00;;;;;;4996443;28;828;-67
2022/07/23 12:54:15;;;;;;;;;;;22.00;73.00;;;;;;4995859;28;1301;-66
2022/07/23 12:56:44;;;;;;;;;;;22.00;73.00;;;;;;4996332;28;1042;-67
2022/07/23 12:59:11;;;;;;;;;;;22.00;73.00;;;;;;4978621;28;1045;-67
2022/07/23 13:01:37;;;;;;;;;;;22.00;73.00;;;;;;4996344;28;845;-67
2022/07/23 13:04:08;;;;;;;;;;;22.00;73.00;;;;;;4995664;28;1903;-67
2022/07/23 13:06:34;;;;;;;;;;;22.00;73.00;;;;;;4995983;28;1188;-67
2022/07/23 13:09:00;;;;;;;;;;;22.00;73.00;;;;;;4978632;28;1006;-66
2022/07/23 13:11:26;;;;;;;;;;;22.00;73.00;;;;;;4995808;28;772;-67
2022/07/23 13:13:51;;;;;;;;;;;22.00;73.00;;;;;;4995611;28;1168;-66
2022/07/23 13:16:16;;;;;;;;;;;22.00;73.00;;;;;;4995843;28;1197;-67
2022/07/23 13:18:42;;;;;;;;;;;22.00;73.00;;;;;;4995848;28;1120;-67
2022/07/23 13:21:08;;;;;;;;;;;22.00;73.00;;;;;;4977994;28;804;-67
2022/07/23 13:23:33;;;;;;;;;;;22.00;73.00;;;;;;4995483;28;1898;-67
2022/07/23 13:25:58;;;;;;;;;;;22.00;73.00;;;;;;4995232;28;1317;-66
2022/07/23 13:28:24;;;;;;;;;;;22.00;73.00;;;;;;4995689;28;811;-67
2022/07/23 13:30:50;;;;;;;;;;;22.00;73.00;;;;;;4995966;28;784;-67
2022/07/23 13:33:16;;;;;;;;;;;22.00;73.00;;;;;;4995520;28;858;-66
2022/07/23 13:35:43;;;;;;;;;;;22.00;73.00;;;;;;4995548;28;1226;-66
2022/07/23 13:38:09;;;;;;;;;;;22.00;73.00;;;;;;4984919;28;2244;-67
2022/07/23 13:40:35;;;;;;;;;;;22.00;73.00;;;;;;4991960;28;1349;-67
2022/07/23 13:43:01;;;;;;;;;;;22.00;73.00;;;;;;4993936;28;1902;-67
2022/07/23 13:45:26;;;;;;;;;;;22.00;73.00;;;;;;4994145;28;1320;-67
2022/07/23 13:47:52;;;;;;;;;;;22.00;73.00;;;;;;4994852;28;808;-67
2022/07/23 13:50:18;;;;;;;;;;;22.00;73.00;;;;;;4976706;28;1077;-66
2022/07/23 13:52:43;;;;;;;;;;;22.00;73.00;;;;;;4995207;28;788;-67
2022/07/23 13:55:09;;;;;;;;;;;22.00;73.00;;;;;;4994948;28;1191;-67
2022/07/23 13:57:34;;;;;;;;;;;22.00;73.00;;;;;;4973390;28;1847;-66
2022/07/23 14:00:00;;;;;;;;;;;22.00;73.00;;;;;;4993540;28;1206;-65
2022/07/23 14:02:25;;;;;;;;;;;22.00;73.00;;;;;;4977418;28;1970;-65
2022/07/23 14:04:50;;;;;;;;;;;22.00;73.00;;;;;;4993615;28;1364;-65
2022/07/23 14:07:16;;;;;;;;;;;22.00;73.00;;;;;;4976091;28;1209;-65
2022/07/23 14:09:41;;;;;;;;;;;22.00;73.00;;;;;;4994281;28;800;-65
2022/07/23 14:12:07;;;;;;;;;;;22.00;73.00;;;;;;4994849;28;1109;-65
2022/07/23 14:14:33;;;;;;;;;;;22.00;73.00;;;;;;4976999;28;1276;-66
2022/07/23 14:16:58;;;;;;;;;;;22.00;73.00;;;;;;4977413;28;781;-65
2022/07/23 14:19:23;;;;;;;;;;;22.00;73.00;;;;;;4977266;28;1197;-65
2022/07/23 14:21:49;;;;;;;;;;;22.00;73.00;;;;;;4994620;28;853;-66
2022/07/23 14:24:15;;;;;;;;;;;22.00;73.00;;;;;;4994087;28;1959;-66
2022/07/23 14:26:40;;;;;;;;;;;22.00;73.00;;;;;;4994528;28;983;-65
2022/07/23 14:29:06;;;;;;;;;;;22.00;73.00;;;;;;4994637;28;859;-65
2022/07/23 14:31:31;;;;;;;;;;;22.00;73.00;;;;;;4977049;28;920;-65